createdAt,value
2022-07-30T00:00:45.209Z,20.65
2022-07-30T00:03:12.345Z,21.58
2022-07-30T00:05:39.490Z,23.70
2022-07-30T00:08:07.091Z,28.60
2022-07-30T00:10:34.304Z,22.02
2022-07-30T00:13:05.530Z,30.30
2022-07-30T00:15:38.114Z,30.10
2022-07-30T00:18:05.265Z,29.92
2022-07-30T00:20:32.501Z,26.75
2022-07-30T00:23:08.662Z,34.30
2022-07-30T00:25:39.240Z,27.50
2022-07-30T00:28:08.128Z,33.05
2022-07-30T00:30:38.884Z,30.00
2022-07-30T00:33:08.159Z,28.40
2022-07-30T00:35:35.688Z,28.38
2022-07-30T00:38:03.269Z,29.48
2022-07-30T00:40:35.079Z,31.67
2022-07-30T00:43:02.257Z,29.83
2022-07-30T00:45:29.513Z,33.35
2022-07-30T00:48:04.646Z,29.80
2022-07-30T00:50:45.343Z,27.42
2022-07-30T00:55:45.288Z,33.70
2022-07-30T00:58:12.170Z,39.72
2022-07-30T01:00:44.958Z,32.20
2022-07-30T01:03:12.005Z,27.13
2022-07-30T01:05:39.148Z,27.40
2022-07-30T01:08:06.013Z,25.25
2022-07-30T01:10:33.340Z,28.45
2022-07-30T01:13:08.198Z,32.25
2022-07-30T01:15:35.682Z,29.58
2022-07-30T01:18:05.471Z,30.13
2022-07-30T01:20:37.397Z,32.33
2022-07-30T01:23:21.862Z,27.17
2022-07-30T01:25:56.295Z,30.83
2022-07-30T01:28:27.854Z,26.95
2022-07-30T01:31:01.413Z,26.90
2022-07-30T01:33:28.821Z,26.95
2022-07-30T01:35:56.177Z,28.13
2022-07-30T01:38:24.584Z,31.13
2022-07-30T01:40:53.060Z,28.88
2022-07-30T01:43:41.280Z,31.25
2022-07-30T01:46:09.143Z,31.80
2022-07-30T01:48:41.295Z,32.75
2022-07-30T01:51:11.862Z,33.30
2022-07-30T01:53:41.688Z,33.42
2022-07-30T01:56:10.733Z,36.30
2022-07-30T01:58:50.143Z,29.98
2022-07-30T02:01:20.545Z,31.13
2022-07-30T02:03:51.363Z,31.90
2022-07-30T02:06:21.834Z,35.05
2022-07-30T02:09:00.453Z,34.78
2022-07-30T02:11:51.748Z,38.08
2022-07-30T02:14:23.082Z,36.42
2022-07-30T02:16:54.627Z,40.40
2022-07-30T02:19:25.581Z,41.28
2022-07-30T02:22:23.956Z,38.33
2022-07-30T02:24:51.811Z,40.58
2022-07-30T02:27:24.842Z,45.22
2022-07-30T02:29:52.821Z,41.38
2022-07-30T02:32:22.394Z,44.10
2022-07-30T02:34:52.295Z,45.50
2022-07-30T02:37:41.079Z,45.10
2022-07-30T02:40:12.363Z,47.50
2022-07-30T02:42:49.945Z,48.38
2022-07-30T02:45:20.694Z,43.92
2022-07-30T02:47:52.614Z,49.53
2022-07-30T02:50:21.064Z,42.27
2022-07-30T02:52:52.079Z,43.75
2022-07-30T02:55:20.031Z,51.33
2022-07-30T02:57:47.941Z,45.85
2022-07-30T03:00:15.494Z,50.60
2022-07-30T03:02:45.103Z,47.63
2022-07-30T03:05:14.102Z,50.65
2022-07-30T03:07:41.469Z,55.88
2022-07-30T03:10:09.159Z,52.47
2022-07-30T03:12:37.385Z,50.70
2022-07-30T03:15:04.805Z,46.05
2022-07-30T03:17:35.868Z,56.65
2022-07-30T03:20:04.554Z,52.03
2022-07-30T03:22:33.220Z,51.20
2022-07-30T03:25:01.285Z,47.08
2022-07-30T03:27:28.870Z,51.65
2022-07-30T03:29:57.128Z,45.50
2022-07-30T03:32:26.145Z,64.57
2022-07-30T03:34:54.601Z,52.75
2022-07-30T03:37:25.350Z,51.53
2022-07-30T03:39:54.312Z,48.05
2022-07-30T03:42:22.199Z,46.83
2022-07-30T03:44:49.403Z,49.72
2022-07-30T03:47:16.991Z,53.63
2022-07-30T03:49:47.857Z,54.55
2022-07-30T03:52:15.066Z,52.50
2022-07-30T03:54:45.546Z,51.58
2022-07-30T03:57:55.651Z,55.70
2022-07-30T04:00:27.250Z,50.17
2022-07-30T04:02:55.369Z,51.10
2022-07-30T04:05:54.653Z,45.80
2022-07-30T04:08:21.973Z,45.45
2022-07-30T04:10:50.018Z,52.58
2022-07-30T04:13:19.980Z,50.50
2022-07-30T04:16:39.497Z,51.38
2022-07-30T04:18:59.636Z,49.58
2022-07-30T04:21:27.462Z,52.13
2022-07-30T04:24:03.660Z,47.97
2022-07-30T04:26:34.957Z,59.08
2022-07-30T04:29:05.827Z,50.13
2022-07-30T04:31:38.242Z,59.25
2022-07-30T04:34:28.812Z,44.35
2022-07-30T04:37:00.520Z,44.95
2022-07-30T04:39:41.093Z,43.78
2022-07-30T04:42:08.052Z,40.80
2022-07-30T04:44:38.739Z,41.20
2022-07-30T04:47:25.742Z,46.70
2022-07-30T04:50:16.590Z,33.83
2022-07-30T04:52:46.119Z,35.20
2022-07-30T04:55:18.930Z,49.85
2022-07-30T04:57:52.479Z,39.05
2022-07-30T05:00:20.411Z,43.03
2022-07-30T05:02:49.632Z,45.08
2022-07-30T05:05:17.675Z,43.13
2022-07-30T05:07:46.140Z,45.45
2022-07-30T05:10:16.956Z,50.20
2022-07-30T05:12:43.875Z,49.38
2022-07-30T05:15:11.637Z,47.60
2022-07-30T05:17:38.483Z,48.30
2022-07-30T05:20:10.257Z,50.55
2022-07-30T05:22:53.355Z,45.17
2022-07-30T05:25:21.825Z,52.40
2022-07-30T05:27:51.387Z,48.80
2022-07-30T05:30:18.415Z,58.67
2022-07-30T05:32:49.470Z,53.63
2022-07-30T05:35:17.223Z,55.45
2022-07-30T05:37:44.161Z,49.15
2022-07-30T05:40:12.822Z,47.45
2022-07-30T05:42:42.540Z,50.85
2022-07-30T05:45:09.844Z,60.78
2022-07-30T05:47:37.692Z,43.88
2022-07-30T05:50:05.499Z,49.28
2022-07-30T05:52:33.437Z,44.10
2022-07-30T05:55:11.057Z,40.38
2022-07-30T05:57:52.154Z,33.47
2022-07-30T06:00:19.367Z,29.77
2022-07-30T06:02:52.718Z,31.98
2022-07-30T06:07:52.750Z,26.35
2022-07-30T06:10:22.410Z,22.33
2022-07-30T06:12:49.299Z,22.40
2022-07-30T06:15:25.678Z,19.65
2022-07-30T06:18:01.933Z,19.48
2022-07-30T06:20:40.131Z,18.25
2022-07-30T06:23:33.275Z,18.60
2022-07-30T06:26:29.320Z,22.10
2022-07-30T06:28:56.553Z,17.75
2022-07-30T06:31:29.372Z,18.42
2022-07-30T06:33:56.417Z,15.75
2022-07-30T06:36:25.770Z,15.68
2022-07-30T06:39:00.783Z,16.42
2022-07-30T06:44:13.629Z,13.57
2022-07-30T06:47:02.881Z,13.77
2022-07-30T06:49:35.452Z,15.63
2022-07-30T06:52:03.470Z,15.55
2022-07-30T06:54:30.389Z,15.43
2022-07-30T06:57:20.253Z,12.90
2022-07-30T06:59:56.296Z,14.38
2022-07-30T07:02:39.680Z,11.80
2022-07-30T07:05:13.191Z,11.52
2022-07-30T07:07:52.425Z,10.73
2022-07-30T07:10:27.425Z,12.07
2022-07-30T07:13:20.659Z,8.82
2022-07-30T07:15:47.745Z,8.25
2022-07-30T07:18:19.120Z,7.47
2022-07-30T07:21:01.682Z,9.77
2022-07-30T07:23:42.098Z,8.35
2022-07-30T07:26:31.128Z,8.23
2022-07-30T07:29:01.065Z,10.13
2022-07-30T07:32:06.962Z,6.07
2022-07-30T07:34:17.754Z,6.82
2022-07-30T07:36:44.921Z,5.47
2022-07-30T07:39:13.034Z,4.45
2022-07-30T07:41:49.103Z,4.27
2022-07-30T07:44:19.175Z,5.55
2022-07-30T07:46:45.988Z,13.93
2022-07-30T07:49:13.018Z,9.20
2022-07-30T07:51:48.050Z,19.38
2022-07-30T07:54:22.023Z,7.80
2022-07-30T07:56:52.905Z,10.10
2022-07-30T07:59:25.465Z,8.95
2022-07-30T08:02:03.973Z,8.90
2022-07-30T08:04:56.506Z,6.88
2022-07-30T08:07:49.673Z,5.72
2022-07-30T08:10:19.294Z,3.20
2022-07-30T08:12:57.059Z,5.43
2022-07-30T08:15:29.758Z,5.30
2022-07-30T08:17:59.365Z,10.43
2022-07-30T08:20:39.796Z,6.57
2022-07-30T08:23:06.900Z,4.22
2022-07-30T08:25:33.907Z,6.63
2022-07-30T08:28:03.136Z,11.02
2022-07-30T08:30:31.015Z,5.93
2022-07-30T08:32:58.057Z,5.70
2022-07-30T08:35:25.724Z,6.30
2022-07-30T08:37:52.834Z,6.43
2022-07-30T08:40:26.484Z,11.52
2022-07-30T08:43:06.874Z,7.22
2022-07-30T08:45:35.446Z,5.68
2022-07-30T08:48:29.554Z,4.80
2022-07-30T08:50:56.768Z,7.13
2022-07-30T08:53:42.111Z,6.90
2022-07-30T08:56:09.375Z,6.60
2022-07-30T08:58:42.333Z,13.45
2022-07-30T09:01:09.331Z,10.38
2022-07-30T09:03:44.366Z,9.30
2022-07-30T09:06:11.954Z,12.30
2022-07-30T09:08:39.080Z,9.57
2022-07-30T09:11:05.871Z,10.43
2022-07-30T09:13:35.257Z,10.02
2022-07-30T09:16:04.207Z,9.70
2022-07-30T09:21:24.574Z,11.15
2022-07-30T09:24:12.042Z,8.63
2022-07-30T09:27:02.504Z,8.80
2022-07-30T09:29:57.714Z,12.25
2022-07-30T09:32:56.974Z,9.90
2022-07-30T09:35:43.268Z,9.65
2022-07-30T09:38:11.422Z,11.63
2022-07-30T09:40:57.723Z,17.08
2022-07-30T09:43:44.864Z,20.02
2022-07-30T09:46:19.926Z,26.48
2022-07-30T09:48:46.975Z,58.03
2022-07-30T09:54:00.987Z,11.00
2022-07-30T09:56:37.398Z,13.68
2022-07-30T09:59:07.243Z,14.38
2022-07-30T10:01:56.254Z,13.68
2022-07-30T10:04:46.930Z,26.45
2022-07-30T10:07:24.987Z,209.85
2022-07-30T10:09:59.440Z,24.67
2022-07-30T10:12:32.959Z,17.20
2022-07-30T10:15:01.967Z,20.10
2022-07-30T10:17:34.390Z,17.15
2022-07-30T10:20:28.712Z,16.70
2022-07-30T10:23:32.911Z,15.77
2022-07-30T10:26:27.065Z,15.90
2022-07-30T10:29:33.989Z,15.27
2022-07-30T10:32:01.843Z,12.75
2022-07-30T10:34:33.919Z,13.57
2022-07-30T10:37:04.611Z,13.95
2022-07-30T10:39:44.853Z,12.02
2022-07-30T10:42:58.950Z,15.35
2022-07-30T10:45:46.266Z,19.13
2022-07-30T10:48:18.050Z,15.60
2022-07-30T10:50:56.849Z,14.68
2022-07-30T10:53:48.561Z,16.10
2022-07-30T10:56:22.436Z,12.73
2022-07-30T10:59:04.243Z,14.23
2022-07-30T11:01:53.360Z,17.52
2022-07-30T11:04:25.586Z,14.18
2022-07-30T11:07:23.569Z,13.25
2022-07-30T11:10:05.361Z,15.40
2022-07-30T11:12:44.145Z,35.60
2022-07-30T11:15:18.437Z,19.10
2022-07-30T11:18:12.972Z,11.07
2022-07-30T11:20:45.689Z,15.25
2022-07-30T11:23:39.246Z,18.88
2022-07-30T11:26:07.127Z,16.95
2022-07-30T11:28:43.987Z,15.18
2022-07-30T11:31:54.981Z,16.13
2022-07-30T11:34:26.211Z,14.48
2022-07-30T11:37:18.199Z,15.70
2022-07-30T11:39:58.137Z,16.08
2022-07-30T11:42:29.120Z,13.32
2022-07-30T11:45:23.082Z,12.95
2022-07-30T11:47:51.793Z,11.88
2022-07-30T11:50:30.280Z,13.05
2022-07-30T11:53:00.344Z,12.38
2022-07-30T11:55:42.463Z,15.35
2022-07-30T11:58:14.763Z,14.77
2022-07-30T12:00:47.757Z,12.57
2022-07-30T12:05:43.548Z,16.92
2022-07-30T12:08:36.131Z,18.17
2022-07-30T12:11:00.647Z,14.35
2022-07-30T12:13:43.871Z,14.25
2022-07-30T12:16:14.511Z,13.23
2022-07-30T12:18:41.622Z,15.40
2022-07-30T12:21:13.731Z,18.10
2022-07-30T12:23:43.338Z,12.85
2022-07-30T12:26:26.625Z,12.80
2022-07-30T12:28:55.247Z,10.77
2022-07-30T12:31:22.484Z,13.02
2022-07-30T12:33:49.468Z,10.98
2022-07-30T12:36:32.165Z,18.63
2022-07-30T12:39:00.729Z,12.40
2022-07-30T12:41:50.296Z,11.80
2022-07-30T12:44:40.981Z,10.90
2022-07-30T12:47:27.440Z,15.85
2022-07-30T12:50:52.424Z,11.60
2022-07-30T12:52:51.710Z,9.02
2022-07-30T12:55:19.821Z,8.25
2022-07-30T12:58:07.613Z,9.55
2022-07-30T13:00:44.764Z,10.55
2022-07-30T13:03:24.943Z,6.38
2022-07-30T13:05:55.673Z,6.78
2022-07-30T13:08:45.161Z,5.38
2022-07-30T13:11:12.367Z,9.70
2022-07-30T13:13:39.564Z,4.55
2022-07-30T13:16:07.469Z,4.30
2022-07-30T13:18:35.573Z,4.35
2022-07-30T13:21:05.432Z,8.25
2022-07-30T13:23:32.660Z,3.88
2022-07-30T13:26:17.331Z,15.30
2022-07-30T13:28:46.545Z,3.83
2022-07-30T13:31:13.539Z,5.50
2022-07-30T13:33:40.613Z,3.08
2022-07-30T13:36:07.842Z,5.93
2022-07-30T13:38:35.002Z,4.50
2022-07-30T13:41:03.064Z,4.10
2022-07-30T13:43:33.599Z,2.25
2022-07-30T13:46:03.251Z,5.22
2022-07-30T13:48:30.601Z,4.03
2022-07-30T13:50:57.803Z,3.70
2022-07-30T13:53:24.663Z,7.78
2022-07-30T13:55:51.498Z,2.40
2022-07-30T13:58:18.522Z,3.50
2022-07-30T14:00:47.784Z,3.30
2022-07-30T14:03:16.648Z,2.17
2022-07-30T14:05:45.155Z,1.67
2022-07-30T14:08:13.577Z,2.88
2022-07-30T14:10:41.062Z,3.45
2022-07-30T14:13:20.818Z,2.35
2022-07-30T14:15:48.578Z,2.30
2022-07-30T14:18:15.503Z,1.20
2022-07-30T14:20:48.593Z,1.10
2022-07-30T14:23:16.585Z,2.20
2022-07-30T14:25:44.315Z,3.17
2022-07-30T14:28:11.219Z,1.10
2022-07-30T14:30:38.195Z,1.17
2022-07-30T14:33:05.300Z,2.40
2022-07-30T14:35:32.608Z,3.92
2022-07-30T14:37:59.643Z,0.90
2022-07-30T14:40:26.547Z,0.98
2022-07-30T14:42:56.210Z,1.55
2022-07-30T14:45:23.574Z,2.72
2022-07-30T14:47:53.663Z,3.40
2022-07-30T14:50:20.608Z,1.17
2022-07-30T14:52:47.625Z,2.20
2022-07-30T14:55:14.696Z,1.83
2022-07-30T14:57:43.403Z,2.25
2022-07-30T15:00:11.888Z,4.82
2022-07-30T15:02:38.927Z,2.70
2022-07-30T15:05:06.465Z,1.85
2022-07-30T15:07:34.877Z,1.95
2022-07-30T15:10:02.627Z,1.67
2022-07-30T15:12:29.547Z,1.10
2022-07-30T15:14:56.475Z,1.50
2022-07-30T15:17:26.648Z,2.03
2022-07-30T15:19:53.485Z,1.50
2022-07-30T15:22:21.737Z,1.27
2022-07-30T15:24:48.971Z,1.20
2022-07-30T15:27:16.561Z,0.90
2022-07-30T15:29:44.481Z,1.40
2022-07-30T15:32:11.429Z,4.18
2022-07-30T15:34:38.259Z,1.45
2022-07-30T15:37:05.605Z,0.65
2022-07-30T15:39:33.626Z,1.38
2022-07-30T15:42:01.986Z,1.92
2022-07-30T15:44:29.576Z,3.60
2022-07-30T15:46:56.526Z,5.90
2022-07-30T15:49:23.792Z,1.08
2022-07-30T15:51:51.823Z,1.00
2022-07-30T15:54:22.886Z,0.68
2022-07-30T15:56:50.713Z,2.78
2022-07-30T15:59:17.730Z,0.88
2022-07-30T16:01:44.661Z,0.80
2022-07-30T16:04:19.725Z,3.25
2022-07-30T16:06:49.979Z,4.45
2022-07-30T16:09:16.956Z,0.60
2022-07-30T16:11:43.827Z,5.72
2022-07-30T16:14:10.938Z,3.47
2022-07-30T16:16:38.219Z,6.55
2022-07-30T16:19:05.094Z,4.10
2022-07-30T16:21:31.965Z,2.58
2022-07-30T16:23:59.171Z,0.57
2022-07-30T16:26:26.111Z,1.13
2022-07-30T16:28:53.372Z,1.02
2022-07-30T16:31:20.155Z,1.00
2022-07-30T16:33:47.389Z,6.85
2022-07-30T16:36:14.444Z,13.23
2022-07-30T16:38:41.443Z,2.50
2022-07-30T16:41:13.470Z,1.42
2022-07-30T16:43:41.083Z,4.03
2022-07-30T16:46:08.341Z,1.88
2022-07-30T16:48:35.234Z,2.70
2022-07-30T16:51:02.428Z,12.23
2022-07-30T16:53:29.828Z,1.30
2022-07-30T16:55:57.176Z,1.80
2022-07-30T16:58:28.345Z,6.22
2022-07-30T17:00:58.310Z,2.65
2022-07-30T17:03:25.704Z,3.15
2022-07-30T17:05:53.313Z,5.38
2022-07-30T17:08:24.967Z,4.25
2022-07-30T17:10:53.132Z,2.40
2022-07-30T17:13:20.808Z,1.83
2022-07-30T17:15:48.169Z,3.75
2022-07-30T17:18:15.504Z,5.78
2022-07-30T17:20:42.692Z,4.47
2022-07-30T17:23:09.575Z,2.83
2022-07-30T17:25:36.496Z,0.85
2022-07-30T17:28:03.839Z,2.70
2022-07-30T17:30:30.806Z,5.25
2022-07-30T17:32:57.839Z,5.95
2022-07-30T17:35:25.074Z,3.25
2022-07-30T17:37:52.293Z,1.02
2022-07-30T17:40:30.769Z,1.88
2022-07-30T17:43:04.923Z,1.60
2022-07-30T17:45:33.215Z,13.38
2022-07-30T17:48:01.748Z,6.72
2022-07-30T17:50:30.163Z,6.90
2022-07-30T17:52:58.998Z,7.35
2022-07-30T17:55:28.541Z,18.95
2022-07-30T17:57:55.904Z,11.68
2022-07-30T18:00:23.463Z,7.28
2022-07-30T18:02:50.384Z,6.43
2022-07-30T18:05:17.273Z,6.75
2022-07-30T18:07:44.432Z,5.20
2022-07-30T18:10:12.437Z,8.95
2022-07-30T18:13:26.223Z,5.55
2022-07-30T18:15:52.911Z,4.97
2022-07-30T18:18:19.764Z,7.80
2022-07-30T18:20:48.421Z,3.33
2022-07-30T18:23:19.261Z,2.60
2022-07-30T18:25:51.920Z,2.90
2022-07-30T18:28:21.699Z,4.22
2022-07-30T18:30:48.594Z,6.22
2022-07-30T18:33:18.070Z,9.68
2022-07-30T18:35:44.931Z,5.28
2022-07-30T18:38:11.742Z,3.38
2022-07-30T18:40:38.635Z,3.03
2022-07-30T18:43:07.987Z,9.05
2022-07-30T18:45:37.254Z,11.68
2022-07-30T18:48:04.792Z,1.83
2022-07-30T18:50:32.898Z,4.65
2022-07-30T18:52:59.820Z,10.98
2022-07-30T18:55:26.712Z,9.38
2022-07-30T18:57:53.515Z,11.60
2022-07-30T19:00:31.097Z,4.43
2022-07-30T19:03:02.596Z,3.65
2022-07-30T19:05:29.713Z,13.10
2022-07-30T19:07:57.795Z,15.02
2022-07-30T19:10:26.611Z,10.93
2022-07-30T19:12:54.961Z,6.85
2022-07-30T19:15:21.929Z,14.27
2022-07-30T19:17:51.253Z,8.73
2022-07-30T19:20:19.749Z,4.95
2022-07-30T19:22:50.368Z,6.18
2022-07-30T19:25:20.995Z,7.15
2022-07-30T19:27:47.925Z,8.70
2022-07-30T19:30:14.748Z,4.78
2022-07-30T19:32:41.802Z,4.63
2022-07-30T19:35:10.317Z,3.30
2022-07-30T19:37:41.470Z,9.55
2022-07-30T19:40:10.735Z,10.88
2022-07-30T19:42:41.257Z,10.65
2022-07-30T19:45:11.802Z,6.57
2022-07-30T19:47:39.769Z,8.27
2022-07-30T19:50:10.245Z,6.55
2022-07-30T19:52:51.258Z,6.20
2022-07-30T19:55:35.209Z,6.35
2022-07-30T19:58:21.047Z,6.05
2022-07-30T20:00:49.571Z,15.10
2022-07-30T20:03:19.072Z,4.70
2022-07-30T20:05:57.528Z,4.13
2022-07-30T20:08:27.868Z,13.80
2022-07-30T20:10:57.803Z,4.63
2022-07-30T20:13:45.467Z,9.52
2022-07-30T20:16:17.480Z,3.92
2022-07-30T20:22:06.913Z,7.85
2022-07-30T20:24:20.528Z,3.42
2022-07-30T20:26:48.075Z,7.45
2022-07-30T20:29:19.280Z,4.57
2022-07-30T20:31:49.730Z,3.42
2022-07-30T20:34:23.212Z,3.05
2022-07-30T20:36:51.397Z,18.98
2022-07-30T20:42:08.373Z,19.55
2022-07-30T20:44:35.847Z,20.80
2022-07-30T20:47:08.203Z,10.02
2022-07-30T20:49:36.164Z,8.38
2022-07-30T20:52:04.079Z,12.18
2022-07-30T20:54:31.946Z,16.15
2022-07-30T20:57:00.127Z,10.95
2022-07-30T20:59:27.698Z,14.95
2022-07-30T21:01:55.818Z,12.63
2022-07-30T21:04:46.881Z,15.68
2022-07-30T21:07:20.629Z,12.23
2022-07-30T21:09:49.708Z,12.25
2022-07-30T21:12:18.792Z,15.73
2022-07-30T21:14:59.489Z,13.82
2022-07-30T21:17:26.982Z,7.72
2022-07-30T21:19:55.097Z,24.10
2022-07-30T21:22:22.483Z,10.50
2022-07-30T21:24:50.932Z,14.10
2022-07-30T21:27:18.970Z,17.02
2022-07-30T21:29:46.011Z,10.75
2022-07-30T21:32:13.219Z,12.00
2022-07-30T21:34:42.356Z,11.18
2022-07-30T21:37:09.867Z,24.85
2022-07-30T21:39:40.079Z,6.90
2022-07-30T21:42:10.217Z,12.60
2022-07-30T21:44:38.154Z,12.55
2022-07-30T21:47:10.460Z,8.43
2022-07-30T21:49:39.056Z,11.35
2022-07-30T21:52:08.427Z,10.57
2022-07-30T21:57:26.689Z,11.68
2022-07-30T21:59:58.046Z,4.30
2022-07-30T22:02:25.222Z,9.48
2022-07-30T22:04:53.622Z,7.63
2022-07-30T22:07:21.827Z,14.48
2022-07-30T22:09:49.076Z,6.95
2022-07-30T22:12:18.416Z,10.88
2022-07-30T22:14:46.935Z,9.90
2022-07-30T22:17:23.391Z,7.78
2022-07-30T22:20:08.555Z,5.50
2022-07-30T22:22:39.210Z,9.13
2022-07-30T22:25:09.495Z,9.50
2022-07-30T22:27:39.787Z,14.35
2022-07-30T22:30:26.701Z,8.00
2022-07-30T22:32:55.143Z,7.95
2022-07-30T22:35:46.674Z,11.95
2022-07-30T22:38:17.177Z,7.97
2022-07-30T22:40:48.174Z,7.32
2022-07-30T22:43:16.352Z,3.78
2022-07-30T22:45:47.972Z,5.72
2022-07-30T22:48:16.357Z,9.17
2022-07-30T22:50:43.367Z,7.80
2022-07-30T22:53:56.841Z,9.75
2022-07-30T22:55:58.737Z,8.05
2022-07-30T22:58:26.733Z,11.15
2022-07-30T23:00:54.611Z,8.90
2022-07-30T23:03:21.454Z,14.82
2022-07-30T23:05:55.940Z,9.35
2022-07-30T23:08:29.859Z,13.27
2022-07-30T23:10:58.034Z,15.68
2022-07-30T23:12:17.186Z,6.97
2022-07-30T23:12:19.253Z,14.05
2022-07-30T23:12:33.132Z,7.55
2022-07-30T23:13:24.805Z,8.13
2022-07-30T23:15:51.569Z,8.52
2022-07-30T23:18:18.448Z,6.03
2022-07-30T23:20:51.542Z,11.65
2022-07-30T23:25:46.089Z,12.10
2022-07-30T23:28:13.055Z,15.93
2022-07-30T23:30:40.111Z,9.07
2022-07-30T23:33:06.909Z,6.88
2022-07-30T23:35:34.129Z,12.85
2022-07-30T23:38:02.269Z,14.88
2022-07-30T23:43:50.270Z,7.78
2022-07-30T23:46:17.416Z,9.85
2022-07-30T23:48:44.759Z,8.00
2022-07-30T23:51:38.402Z,9.25
2022-07-30T23:54:29.290Z,13.65
2022-07-30T23:56:56.249Z,10.00
2022-07-30T23:59:36.770Z,12.98
